createdAt,value
2023-07-18T00:00:23.410Z,19.50
2023-07-18T00:01:23.677Z,19.54
2023-07-18T00:02:23.389Z,19.54
2023-07-18T00:03:23.465Z,19.48
2023-07-18T00:04:23.399Z,19.39
2023-07-18T00:05:23.420Z,19.47
2023-07-18T00:06:23.442Z,19.54
2023-07-18T00:07:23.458Z,19.55
2023-07-18T00:08:23.477Z,19.48
2023-07-18T00:09:23.510Z,19.50
2023-07-18T00:10:23.522Z,19.54
2023-07-18T00:11:23.632Z,19.47
2023-07-18T00:12:23.553Z,19.39
2023-07-18T00:13:23.593Z,19.37
2023-07-18T00:14:23.600Z,19.33
2023-07-18T00:15:23.612Z,19.31
2023-07-18T00:16:23.680Z,19.39
2023-07-18T00:17:23.648Z,19.41
2023-07-18T00:18:23.671Z,19.39
2023-07-18T00:19:23.683Z,19.41
2023-07-18T00:20:23.705Z,19.44
2023-07-18T00:21:23.724Z,19.43
2023-07-18T00:22:23.763Z,19.41
2023-07-18T00:23:23.761Z,19.40
2023-07-18T00:24:23.826Z,19.40
2023-07-18T00:25:23.878Z,19.46
2023-07-18T00:26:23.819Z,19.23
2023-07-18T00:27:23.859Z,19.31
2023-07-18T00:28:23.856Z,19.22
2023-07-18T00:29:23.872Z,19.22
2023-07-18T00:30:23.894Z,19.25
2023-07-18T00:31:23.958Z,19.25
2023-07-18T00:32:23.986Z,19.13
2023-07-18T00:33:23.963Z,19.10
2023-07-18T00:34:23.967Z,19.10
2023-07-18T00:35:24.006Z,19.08
2023-07-18T00:36:24.007Z,18.99
2023-07-18T00:37:24.024Z,18.98
2023-07-18T00:38:24.043Z,18.92
2023-07-18T00:39:24.067Z,18.99
2023-07-18T00:40:24.113Z,19.00
2023-07-18T00:41:24.099Z,18.95
2023-07-18T00:42:24.122Z,18.99
2023-07-18T00:43:24.185Z,19.04
2023-07-18T00:44:24.154Z,19.00
2023-07-18T00:45:24.175Z,19.00
2023-07-18T00:46:24.239Z,19.10
2023-07-18T00:47:24.212Z,19.08
2023-07-18T00:48:24.235Z,19.13
2023-07-18T00:49:24.251Z,19.04
2023-07-18T00:50:24.269Z,19.16
2023-07-18T00:51:24.288Z,19.13
2023-07-18T00:52:24.304Z,19.08
2023-07-18T00:53:24.320Z,19.07
2023-07-18T00:54:24.343Z,19.07
2023-07-18T00:55:24.372Z,19.04
2023-07-18T00:56:24.404Z,19.10
2023-07-18T00:57:24.400Z,19.11
2023-07-18T00:58:24.420Z,18.98
2023-07-18T00:59:24.457Z,19.10
2023-07-18T01:00:24.562Z,19.10
2023-07-18T01:01:24.535Z,19.21
2023-07-18T01:02:24.538Z,19.16
2023-07-18T01:03:24.615Z,19.22
2023-07-18T01:04:24.532Z,19.19
2023-07-18T01:05:24.560Z,19.14
2023-07-18T01:06:24.567Z,19.13
2023-07-18T01:07:24.629Z,19.18
2023-07-18T01:08:24.687Z,19.23
2023-07-18T01:09:24.719Z,19.21
2023-07-18T01:10:24.905Z,19.21
2023-07-18T01:11:24.714Z,19.14
2023-07-18T01:12:24.713Z,19.19
2023-07-18T01:13:24.751Z,19.13
2023-07-18T01:14:24.718Z,19.10
2023-07-18T01:15:24.812Z,19.02
2023-07-18T01:16:24.795Z,18.94
2023-07-18T01:17:24.871Z,18.98
2023-07-18T01:18:24.821Z,19.00
2023-07-18T01:19:24.806Z,19.06
2023-07-18T01:20:24.902Z,19.07
2023-07-18T01:21:24.860Z,19.14
2023-07-18T01:22:24.864Z,19.13
2023-07-18T01:23:24.883Z,19.16
2023-07-18T01:24:24.904Z,19.14
2023-07-18T01:25:24.919Z,19.14
2023-07-18T01:26:24.964Z,19.08
2023-07-18T01:27:24.961Z,19.11
2023-07-18T01:28:24.988Z,19.11
2023-07-18T01:29:24.999Z,19.06
2023-07-18T01:30:25.017Z,19.02
2023-07-18T01:31:25.059Z,19.02
2023-07-18T01:32:25.095Z,19.02
2023-07-18T01:33:25.082Z,18.95
2023-07-18T01:34:25.098Z,18.92
2023-07-18T01:35:25.117Z,18.88
2023-07-18T01:36:25.132Z,18.82
2023-07-18T01:37:25.159Z,18.82
2023-07-18T01:38:25.165Z,18.82
2023-07-18T01:39:25.184Z,18.73
2023-07-18T01:40:25.228Z,18.75
2023-07-18T01:41:25.217Z,18.69
2023-07-18T01:42:25.251Z,18.75
2023-07-18T01:43:25.255Z,18.67
2023-07-18T01:44:25.276Z,18.82
2023-07-18T01:45:25.315Z,18.81
2023-07-18T01:46:25.342Z,18.84
2023-07-18T01:47:25.396Z,18.78
2023-07-18T01:48:25.359Z,18.82
2023-07-18T01:49:25.367Z,18.85
2023-07-18T01:50:25.392Z,18.73
2023-07-18T01:51:25.411Z,18.80
2023-07-18T01:52:25.422Z,18.82
2023-07-18T01:53:25.448Z,18.80
2023-07-18T01:54:25.461Z,18.75
2023-07-18T01:55:25.476Z,18.69
2023-07-18T01:56:25.501Z,18.67
2023-07-18T01:57:25.518Z,18.72
2023-07-18T01:58:25.540Z,18.62
2023-07-18T01:59:25.561Z,18.66
2023-07-18T02:00:25.573Z,18.69
2023-07-18T02:01:25.615Z,18.76
2023-07-18T02:02:25.660Z,18.78
2023-07-18T02:03:25.666Z,18.84
2023-07-18T02:04:25.652Z,18.82
2023-07-18T02:05:25.689Z,18.70
2023-07-18T02:06:25.683Z,18.75
2023-07-18T02:07:25.705Z,18.69
2023-07-18T02:08:25.718Z,18.67
2023-07-18T02:09:25.743Z,18.70
2023-07-18T02:10:25.767Z,18.75
2023-07-18T02:11:25.776Z,18.65
2023-07-18T02:12:25.793Z,18.66
2023-07-18T02:13:25.816Z,18.69
2023-07-18T02:14:25.832Z,18.67
2023-07-18T02:15:25.856Z,18.69
2023-07-18T02:16:25.897Z,18.70
2023-07-18T02:17:25.926Z,18.69
2023-07-18T02:18:25.912Z,18.66
2023-07-18T02:19:25.943Z,18.63
2023-07-18T02:20:25.941Z,18.63
2023-07-18T02:21:25.994Z,18.63
2023-07-18T02:22:26.009Z,18.67
2023-07-18T02:23:25.994Z,18.63
2023-07-18T02:24:26.015Z,18.73
2023-07-18T02:25:26.033Z,18.63
2023-07-18T02:26:26.050Z,18.70
2023-07-18T02:27:26.071Z,18.66
2023-07-18T02:28:26.089Z,18.75
2023-07-18T02:29:26.117Z,18.80
2023-07-18T02:30:26.154Z,18.81
2023-07-18T02:31:26.172Z,18.80
2023-07-18T02:32:26.181Z,18.90
2023-07-18T02:33:26.185Z,18.85
2023-07-18T02:34:26.198Z,18.88
2023-07-18T02:35:26.243Z,18.82
2023-07-18T02:36:26.244Z,18.80
2023-07-18T02:37:26.284Z,18.80
2023-07-18T02:38:26.275Z,18.84
2023-07-18T02:39:26.288Z,18.87
2023-07-18T02:40:26.313Z,18.94
2023-07-18T02:41:26.325Z,18.98
2023-07-18T02:42:26.359Z,18.98
2023-07-18T02:43:26.364Z,18.94
2023-07-18T02:44:26.379Z,18.91
2023-07-18T02:45:26.399Z,18.90
2023-07-18T02:46:26.457Z,18.87
2023-07-18T02:47:26.459Z,18.84
2023-07-18T02:48:26.457Z,18.80
2023-07-18T02:49:26.477Z,18.73
2023-07-18T02:50:26.494Z,18.80
2023-07-18T02:51:26.535Z,18.75
2023-07-18T02:52:26.529Z,18.72
2023-07-18T02:53:26.560Z,18.62
2023-07-18T02:54:26.563Z,18.67
2023-07-18T02:55:26.580Z,18.76
2023-07-18T02:56:26.599Z,18.75
2023-07-18T02:57:26.704Z,18.82
2023-07-18T02:58:26.639Z,18.72
2023-07-18T02:59:26.655Z,18.73
2023-07-18T03:00:26.683Z,18.72
2023-07-18T03:01:26.720Z,18.70
2023-07-18T03:02:26.738Z,18.80
2023-07-18T03:03:26.811Z,18.84
2023-07-18T03:04:26.745Z,18.82
2023-07-18T03:05:26.767Z,18.78
2023-07-18T03:06:26.783Z,18.80
2023-07-18T03:07:26.828Z,18.76
2023-07-18T03:08:26.832Z,18.80
2023-07-18T03:09:26.833Z,18.82
2023-07-18T03:10:26.854Z,18.70
2023-07-18T03:11:26.888Z,18.73
2023-07-18T03:12:26.897Z,18.72
2023-07-18T03:13:26.911Z,18.70
2023-07-18T03:14:26.945Z,18.66
2023-07-18T03:15:26.946Z,18.62
2023-07-18T03:16:27.016Z,18.72
2023-07-18T03:17:27.002Z,18.65
2023-07-18T03:18:27.015Z,18.67
2023-07-18T03:19:27.020Z,18.54
2023-07-18T03:20:27.089Z,18.50
2023-07-18T03:21:27.073Z,18.51
2023-07-18T03:22:27.132Z,18.50
2023-07-18T03:23:27.112Z,18.48
2023-07-18T03:24:27.121Z,18.48
2023-07-18T03:25:27.131Z,18.47
2023-07-18T03:26:27.149Z,18.47
2023-07-18T03:27:27.165Z,18.52
2023-07-18T03:28:27.190Z,18.51
2023-07-18T03:29:27.205Z,18.52
2023-07-18T03:30:27.236Z,18.60
2023-07-18T03:31:27.302Z,18.57
2023-07-18T03:32:27.275Z,18.48
2023-07-18T03:33:27.273Z,18.42
2023-07-18T03:34:27.296Z,18.44
2023-07-18T03:35:27.306Z,18.36
2023-07-18T03:36:27.330Z,18.37
2023-07-18T03:37:27.352Z,18.30
2023-07-18T03:38:27.363Z,18.26
2023-07-18T03:39:27.403Z,18.30
2023-07-18T03:40:27.404Z,18.17
2023-07-18T03:41:27.414Z,18.21
2023-07-18T03:42:27.439Z,18.15
2023-07-18T03:43:27.460Z,18.14
2023-07-18T03:44:27.495Z,18.20
2023-07-18T03:45:27.493Z,18.17
2023-07-18T03:46:27.529Z,18.18
2023-07-18T03:47:27.586Z,18.15
2023-07-18T03:48:27.703Z,18.05
2023-07-18T03:49:27.567Z,18.17
2023-07-18T03:50:27.643Z,18.00
2023-07-18T03:51:30.193Z,18.02
2023-07-18T03:52:27.643Z,17.99
2023-07-18T03:53:27.637Z,18.08
2023-07-18T03:54:27.657Z,18.05
2023-07-18T03:55:27.695Z,18.07
2023-07-18T03:56:27.690Z,18.14
2023-07-18T03:57:27.708Z,18.14
2023-07-18T03:58:27.731Z,18.11
2023-07-18T03:59:27.746Z,18.20
2023-07-18T04:00:27.786Z,18.18
2023-07-18T04:01:27.834Z,18.21
2023-07-18T04:02:27.856Z,18.17
2023-07-18T04:03:27.898Z,18.12
2023-07-18T04:04:27.841Z,18.18
2023-07-18T04:05:27.862Z,18.00
2023-07-18T04:06:27.873Z,18.05
2023-07-18T04:07:27.885Z,18.11
2023-07-18T04:08:27.917Z,18.10
2023-07-18T04:09:27.931Z,18.07
2023-07-18T04:10:27.950Z,18.05
2023-07-18T04:11:28.009Z,17.97
2023-07-18T04:12:27.980Z,17.99
2023-07-18T04:13:27.998Z,18.05
2023-07-18T04:14:28.023Z,18.03
2023-07-18T04:15:28.043Z,18.05
2023-07-18T04:16:28.091Z,18.03
2023-07-18T04:17:28.096Z,18.03
2023-07-18T04:18:28.116Z,18.05
2023-07-18T04:19:28.117Z,18.03
2023-07-18T04:20:28.141Z,18.07
2023-07-18T04:21:28.153Z,18.05
2023-07-18T04:22:28.212Z,18.07
2023-07-18T04:23:28.178Z,18.02
2023-07-18T04:24:28.204Z,18.05
2023-07-18T04:25:28.217Z,18.07
2023-07-18T04:26:28.236Z,18.20
2023-07-18T04:27:28.265Z,18.21
2023-07-18T04:28:28.269Z,18.20
2023-07-18T04:29:28.290Z,18.15
2023-07-18T04:30:28.303Z,18.21
2023-07-18T04:31:28.383Z,18.08
2023-07-18T04:32:28.379Z,18.10
2023-07-18T04:33:28.368Z,17.99
2023-07-18T04:34:28.377Z,18.00
2023-07-18T04:35:28.395Z,17.99
2023-07-18T04:36:28.410Z,18.08
2023-07-18T04:37:28.432Z,18.00
2023-07-18T04:38:28.457Z,18.14
2023-07-18T04:39:28.476Z,18.10
2023-07-18T04:40:28.484Z,18.10
2023-07-18T04:41:35.032Z,18.10
2023-07-18T04:42:28.529Z,18.14
2023-07-18T04:43:28.561Z,18.17
2023-07-18T04:44:28.561Z,18.21
2023-07-18T04:45:28.572Z,18.23
2023-07-18T04:46:28.626Z,18.29
2023-07-18T04:47:28.684Z,18.26
2023-07-18T04:48:28.647Z,18.32
2023-07-18T04:49:28.643Z,18.29
2023-07-18T04:50:30.349Z,18.35
2023-07-18T04:51:28.678Z,18.32
2023-07-18T04:52:28.696Z,18.33
2023-07-18T04:53:28.731Z,18.35
2023-07-18T04:54:28.731Z,18.27
2023-07-18T04:55:28.753Z,18.37
2023-07-18T04:56:28.767Z,18.42
2023-07-18T04:57:28.793Z,18.33
2023-07-18T04:58:28.800Z,18.35
2023-07-18T04:59:28.867Z,18.44
2023-07-18T05:00:28.834Z,18.44
2023-07-18T05:01:28.906Z,18.45
2023-07-18T05:02:28.945Z,18.42
2023-07-18T05:03:29.694Z,18.52
2023-07-18T05:04:28.946Z,18.51
2023-07-18T05:05:28.963Z,18.55
2023-07-18T05:06:28.944Z,18.60
2023-07-18T05:07:28.969Z,18.60
2023-07-18T05:08:28.984Z,18.55
2023-07-18T05:09:29.001Z,18.60
2023-07-18T05:10:29.018Z,18.60
2023-07-18T05:11:29.046Z,18.69
2023-07-18T05:12:29.064Z,18.72
2023-07-18T05:13:29.098Z,18.69
2023-07-18T05:14:29.083Z,18.67
2023-07-18T05:15:29.132Z,18.70
2023-07-18T05:16:29.158Z,18.69
2023-07-18T05:17:29.192Z,18.72
2023-07-18T05:18:29.155Z,18.80
2023-07-18T05:19:29.192Z,18.69
2023-07-18T05:20:30.744Z,18.78
2023-07-18T05:21:29.223Z,18.87
2023-07-18T05:22:29.290Z,19.02
2023-07-18T05:23:29.269Z,19.04
2023-07-18T05:24:29.264Z,19.00
2023-07-18T05:25:29.282Z,18.98
2023-07-18T05:26:29.311Z,19.04
2023-07-18T05:27:29.338Z,19.11
2023-07-18T05:28:29.367Z,19.10
2023-07-18T05:29:29.357Z,19.25
2023-07-18T05:30:29.374Z,19.21
2023-07-18T05:31:29.421Z,19.31
2023-07-18T05:32:29.465Z,19.25
2023-07-18T05:33:29.449Z,19.32
2023-07-18T05:34:30.564Z,19.33
2023-07-18T05:35:29.488Z,19.40
2023-07-18T05:36:29.481Z,19.48
2023-07-18T05:37:29.503Z,19.48
2023-07-18T05:38:29.528Z,19.68
2023-07-18T05:39:29.543Z,19.65
2023-07-18T05:40:29.560Z,19.69
2023-07-18T05:41:29.580Z,19.62
2023-07-18T05:42:29.595Z,19.71
2023-07-18T05:43:29.612Z,19.78
2023-07-18T05:44:29.636Z,19.76
2023-07-18T05:45:29.660Z,19.77
2023-07-18T05:46:29.759Z,19.77
2023-07-18T05:47:29.733Z,19.76
2023-07-18T05:48:29.720Z,19.84
2023-07-18T05:49:29.724Z,19.99
2023-07-18T05:50:29.744Z,19.88
2023-07-18T05:51:29.768Z,20.02
2023-07-18T05:52:29.777Z,20.05
2023-07-18T05:53:29.802Z,20.03
2023-07-18T05:54:29.816Z,19.96
2023-07-18T05:55:29.868Z,20.10
2023-07-18T05:56:29.853Z,20.03
2023-07-18T05:57:29.874Z,20.02
2023-07-18T05:58:29.903Z,20.11
2023-07-18T05:59:29.906Z,20.10
2023-07-18T06:00:29.945Z,20.13
2023-07-18T06:01:30.006Z,20.14
2023-07-18T06:02:29.985Z,20.16
2023-07-18T06:03:30.198Z,20.14
2023-07-18T06:04:30.007Z,20.28
2023-07-18T06:05:30.031Z,20.38
2023-07-18T06:06:30.064Z,20.41
2023-07-18T06:07:30.053Z,20.51
2023-07-18T06:08:30.072Z,20.50
2023-07-18T06:09:30.108Z,20.42
2023-07-18T06:10:30.125Z,20.39
2023-07-18T06:11:30.130Z,20.52
2023-07-18T06:12:30.148Z,20.55
2023-07-18T06:13:30.176Z,20.48
2023-07-18T06:14:30.185Z,20.54
2023-07-18T06:15:30.208Z,20.66
2023-07-18T06:16:30.232Z,20.69
2023-07-18T06:17:30.294Z,20.80
2023-07-18T06:18:30.270Z,20.76
2023-07-18T06:19:30.307Z,20.84
2023-07-18T06:20:30.307Z,20.88
2023-07-18T06:21:30.333Z,20.82
2023-07-18T06:22:30.375Z,20.95
2023-07-18T06:23:30.383Z,20.88
2023-07-18T06:24:30.386Z,20.99
2023-07-18T06:25:30.396Z,21.10
2023-07-18T06:26:30.432Z,21.12
2023-07-18T06:27:30.565Z,21.24
2023-07-18T06:28:30.453Z,21.19
2023-07-18T06:29:30.473Z,21.27
2023-07-18T06:30:30.496Z,21.24
2023-07-18T06:31:30.583Z,21.27
2023-07-18T06:32:30.546Z,21.25
2023-07-18T06:33:30.568Z,21.37
2023-07-18T06:34:30.578Z,21.38
2023-07-18T06:35:30.760Z,21.38
2023-07-18T06:36:30.641Z,21.44
2023-07-18T06:37:30.669Z,21.58
2023-07-18T06:38:30.649Z,21.58
2023-07-18T06:39:30.716Z,21.53
2023-07-18T06:40:30.703Z,21.59
2023-07-18T06:41:30.718Z,21.61
2023-07-18T06:42:30.736Z,21.65
2023-07-18T06:43:30.742Z,21.82
2023-07-18T06:44:30.771Z,22.02
2023-07-18T06:45:30.792Z,22.12
2023-07-18T06:46:30.819Z,22.24
2023-07-18T06:47:30.838Z,22.27
2023-07-18T06:48:30.842Z,22.30
2023-07-18T06:49:30.874Z,22.33
2023-07-18T06:50:30.885Z,22.31
2023-07-18T06:51:30.925Z,22.27
2023-07-18T06:52:32.024Z,22.28
2023-07-18T06:53:30.942Z,22.24
2023-07-18T06:54:30.960Z,22.27
2023-07-18T06:55:30.983Z,22.31
2023-07-18T06:56:31.005Z,22.33
2023-07-18T06:57:31.020Z,22.25
2023-07-18T06:58:31.046Z,22.31
2023-07-18T06:59:31.099Z,22.33
2023-07-18T07:00:31.103Z,22.40
2023-07-18T07:01:31.146Z,22.45
2023-07-18T07:02:31.144Z,22.46
2023-07-18T07:03:31.554Z,22.51
2023-07-18T07:04:31.168Z,22.52
2023-07-18T07:05:31.190Z,22.43
2023-07-18T07:06:31.207Z,22.46
2023-07-18T07:07:31.253Z,22.46
2023-07-18T07:08:31.253Z,22.55
2023-07-18T07:09:31.267Z,22.67
2023-07-18T07:10:31.293Z,22.79
2023-07-18T07:11:31.321Z,22.65
2023-07-18T07:12:36.782Z,22.82
2023-07-18T07:13:31.343Z,22.80
2023-07-18T07:14:31.365Z,22.82
2023-07-18T07:15:31.394Z,22.86
2023-07-18T07:16:31.453Z,22.94
2023-07-18T07:17:31.471Z,22.97
2023-07-18T07:18:31.452Z,22.98
2023-07-18T07:19:31.477Z,23.19
2023-07-18T07:20:31.495Z,23.36
2023-07-18T07:21:31.530Z,23.36
2023-07-18T07:22:31.593Z,23.36
2023-07-18T07:23:31.580Z,23.25
2023-07-18T07:24:31.565Z,23.33
2023-07-18T07:25:31.591Z,23.31
2023-07-18T07:26:31.609Z,23.16
2023-07-18T07:27:31.631Z,23.28
2023-07-18T07:28:31.657Z,23.28
2023-07-18T07:29:31.672Z,23.25
2023-07-18T07:30:31.709Z,23.36
2023-07-18T07:31:31.789Z,23.16
2023-07-18T07:32:31.787Z,23.27
2023-07-18T07:33:31.752Z,23.22
2023-07-18T07:34:33.216Z,23.25
2023-07-18T07:35:31.812Z,23.20
2023-07-18T07:36:31.818Z,23.28
2023-07-18T07:37:31.842Z,23.22
2023-07-18T07:38:31.880Z,23.23
2023-07-18T07:39:31.914Z,23.17
2023-07-18T07:40:31.901Z,23.19
2023-07-18T07:41:31.922Z,23.23
2023-07-18T07:42:31.940Z,23.32
2023-07-18T07:43:31.971Z,23.32
2023-07-18T07:44:31.980Z,23.38
2023-07-18T07:45:32.009Z,23.50
2023-07-18T07:46:32.080Z,23.54
2023-07-18T07:47:32.081Z,23.66
2023-07-18T07:48:32.077Z,23.65
2023-07-18T07:49:32.093Z,23.70
2023-07-18T07:50:32.112Z,23.73
2023-07-18T07:51:32.135Z,23.93
2023-07-18T07:52:32.153Z,24.21
2023-07-18T07:53:32.200Z,24.21
2023-07-18T07:54:32.195Z,24.28
2023-07-18T07:55:32.252Z,24.22
2023-07-18T07:56:32.249Z,24.28
2023-07-18T07:57:32.263Z,24.32
2023-07-18T07:58:32.288Z,24.27
2023-07-18T07:59:32.314Z,24.49
2023-07-18T08:00:32.325Z,24.60
2023-07-18T08:01:32.358Z,24.55
2023-07-18T08:02:32.456Z,24.69
2023-07-18T08:03:32.391Z,24.65
2023-07-18T08:04:32.469Z,24.52
2023-07-18T08:05:32.475Z,24.58
2023-07-18T08:06:32.488Z,24.62
2023-07-18T08:07:32.487Z,24.50
2023-07-18T08:08:32.553Z,24.53
2023-07-18T08:09:32.566Z,24.61
2023-07-18T08:10:32.563Z,24.47
2023-07-18T08:11:32.601Z,24.43
2023-07-18T08:12:32.589Z,24.49
2023-07-18T08:13:32.610Z,24.47
2023-07-18T08:14:32.643Z,24.45
2023-07-18T08:15:32.654Z,24.55
2023-07-18T08:16:32.782Z,24.52
2023-07-18T08:17:32.767Z,24.50
2023-07-18T08:18:32.717Z,24.62
2023-07-18T08:19:32.743Z,24.91
2023-07-18T08:20:32.861Z,24.93
2023-07-18T08:21:32.784Z,24.93
2023-07-18T08:22:32.819Z,24.98
2023-07-18T08:23:32.850Z,25.10
2023-07-18T08:24:32.854Z,25.23
2023-07-18T08:25:32.908Z,25.30
2023-07-18T08:26:32.901Z,25.46
2023-07-18T08:27:32.937Z,25.50
2023-07-18T08:28:32.957Z,25.50
2023-07-18T08:29:33.010Z,25.47
2023-07-18T08:30:33.007Z,25.50
2023-07-18T08:31:33.069Z,25.51
2023-07-18T08:32:33.045Z,25.51
2023-07-18T08:33:33.056Z,25.55
2023-07-18T08:34:33.076Z,25.55
2023-07-18T08:35:33.100Z,25.62
2023-07-18T08:36:33.121Z,25.85
2023-07-18T08:37:33.161Z,25.83
2023-07-18T08:38:33.173Z,25.64
2023-07-18T08:39:33.201Z,25.73
2023-07-18T08:40:33.215Z,25.75
2023-07-18T08:41:33.244Z,25.76
2023-07-18T08:42:33.257Z,25.40
2023-07-18T08:43:33.315Z,25.51
2023-07-18T08:44:33.301Z,25.46
2023-07-18T08:45:33.321Z,25.51
2023-07-18T08:46:33.389Z,25.64
2023-07-18T08:47:33.370Z,25.70
2023-07-18T08:48:33.392Z,25.72
2023-07-18T08:49:36.339Z,25.87
2023-07-18T08:50:33.464Z,25.88
2023-07-18T08:51:33.459Z,25.83
2023-07-18T08:52:33.524Z,25.88
2023-07-18T08:53:33.508Z,25.97
2023-07-18T08:54:33.533Z,26.07
2023-07-18T08:55:33.589Z,25.99
2023-07-18T08:56:33.575Z,25.91
2023-07-18T08:57:33.599Z,25.90
2023-07-18T08:58:33.623Z,25.82
2023-07-18T08:59:33.660Z,25.83
2023-07-18T09:00:33.719Z,25.80
2023-07-18T09:01:33.770Z,25.77
2023-07-18T09:02:33.863Z,25.85
2023-07-18T09:03:33.776Z,25.88
2023-07-18T09:04:33.782Z,25.79
2023-07-18T09:05:33.799Z,25.95
2023-07-18T09:06:33.811Z,26.23
2023-07-18T09:07:33.843Z,26.44
2023-07-18T09:08:33.855Z,26.65
2023-07-18T09:09:33.899Z,26.94
2023-07-18T09:10:33.906Z,27.13
2023-07-18T09:11:33.924Z,27.12
2023-07-18T09:12:33.950Z,27.18
2023-07-18T09:13:33.972Z,27.27
2023-07-18T09:14:33.996Z,27.39
2023-07-18T09:15:34.315Z,26.99
2023-07-18T09:16:34.073Z,27.21
2023-07-18T09:17:34.086Z,27.21
2023-07-18T09:18:34.092Z,27.17
2023-07-18T09:19:34.113Z,27.17
2023-07-18T09:20:34.146Z,26.94
2023-07-18T09:21:34.159Z,26.75
2023-07-18T09:22:34.200Z,26.47
2023-07-18T09:23:34.210Z,26.60
2023-07-18T09:24:34.239Z,26.81
2023-07-18T09:25:34.260Z,26.87
2023-07-18T09:26:34.276Z,27.04
2023-07-18T09:27:34.301Z,27.25
2023-07-18T09:28:34.342Z,27.40
2023-07-18T09:29:34.348Z,27.37
2023-07-18T09:30:34.389Z,27.49
2023-07-18T09:31:34.533Z,27.70
2023-07-18T09:32:34.459Z,27.92
2023-07-18T09:33:34.447Z,27.84
2023-07-18T09:34:34.493Z,27.85
2023-07-18T09:35:34.494Z,27.84
2023-07-18T09:36:36.857Z,28.06
2023-07-18T09:37:34.540Z,27.92
2023-07-18T09:38:34.572Z,27.78
2023-07-18T09:39:34.599Z,27.85
2023-07-18T09:40:34.623Z,28.02
2023-07-18T09:41:34.642Z,27.84
2023-07-18T09:42:34.676Z,27.78
2023-07-18T09:43:36.734Z,27.78
2023-07-18T09:44:37.215Z,27.77
2023-07-18T09:45:34.747Z,27.77
2023-07-18T09:46:34.805Z,27.70
2023-07-18T09:47:34.892Z,27.62
2023-07-18T09:48:44.616Z,27.50
2023-07-18T09:49:34.890Z,27.50
2023-07-18T09:50:34.866Z,27.36
2023-07-18T09:51:34.891Z,27.37
2023-07-18T09:52:34.919Z,27.29
2023-07-18T09:53:34.937Z,27.32
2023-07-18T09:54:34.975Z,27.41
2023-07-18T09:55:34.986Z,27.51
2023-07-18T09:56:35.015Z,27.54
2023-07-18T09:57:35.045Z,27.55
2023-07-18T09:58:35.062Z,27.59
2023-07-18T09:59:35.091Z,27.63
2023-07-18T10:00:35.111Z,27.59
2023-07-18T10:01:35.201Z,27.63
2023-07-18T10:02:35.223Z,27.46
2023-07-18T10:03:35.389Z,27.63
2023-07-18T10:04:35.250Z,27.66
2023-07-18T10:05:35.270Z,27.72
2023-07-18T10:06:35.270Z,27.78
2023-07-18T10:07:35.281Z,27.78
2023-07-18T10:08:35.312Z,27.63
2023-07-18T10:09:35.337Z,27.60
2023-07-18T10:10:35.358Z,27.66
2023-07-18T10:11:35.405Z,27.84
2023-07-18T10:12:35.408Z,27.87
2023-07-18T10:13:35.432Z,27.90
2023-07-18T10:14:35.465Z,28.03
2023-07-18T10:15:35.481Z,28.19
2023-07-18T10:16:35.556Z,28.12
2023-07-18T10:17:35.666Z,27.99
2023-07-18T10:18:35.561Z,28.24
2023-07-18T10:19:35.685Z,28.37
2023-07-18T10:20:38.129Z,28.37
2023-07-18T10:21:35.636Z,28.44
2023-07-18T10:22:35.698Z,28.66
2023-07-18T10:23:35.678Z,28.83
2023-07-18T10:24:35.713Z,28.64
2023-07-18T10:25:35.733Z,28.55
2023-07-18T10:26:35.767Z,28.61
2023-07-18T10:27:35.799Z,28.71
2023-07-18T10:28:35.819Z,28.92
2023-07-18T10:29:35.835Z,28.86
2023-07-18T10:30:35.862Z,28.89
2023-07-18T10:31:35.964Z,29.00
2023-07-18T10:32:35.923Z,29.05
2023-07-18T10:33:35.940Z,29.11
2023-07-18T10:34:35.982Z,29.30
2023-07-18T10:35:36.161Z,29.30
2023-07-18T10:36:36.019Z,29.30
2023-07-18T10:37:36.071Z,28.98
2023-07-18T10:38:36.068Z,28.96
2023-07-18T10:39:36.093Z,28.55
2023-07-18T10:40:36.124Z,28.66
2023-07-18T10:41:36.143Z,28.88
2023-07-18T10:42:36.278Z,28.90
2023-07-18T10:43:36.194Z,29.04
2023-07-18T10:44:36.227Z,29.04
2023-07-18T10:45:36.268Z,28.49
2023-07-18T10:46:36.287Z,28.48
2023-07-18T10:47:36.385Z,28.39
2023-07-18T10:48:36.325Z,28.55
2023-07-18T10:49:36.367Z,28.58
2023-07-18T10:50:36.378Z,28.61
2023-07-18T10:51:36.430Z,28.76
2023-07-18T10:52:36.567Z,28.76
2023-07-18T10:53:36.466Z,28.93
2023-07-18T10:54:36.491Z,29.18
2023-07-18T10:55:36.518Z,29.37
2023-07-18T10:56:36.537Z,29.37
2023-07-18T10:57:36.561Z,29.57
2023-07-18T10:58:36.595Z,29.73
2023-07-18T10:59:36.614Z,29.46
2023-07-18T11:00:36.674Z,29.64
2023-07-18T11:01:36.687Z,29.92
2023-07-18T11:02:36.767Z,30.22
2023-07-18T11:03:36.790Z,30.27
2023-07-18T11:04:36.764Z,30.23
2023-07-18T11:05:36.774Z,30.39
2023-07-18T11:06:36.805Z,29.73
2023-07-18T11:07:36.847Z,29.79
2023-07-18T11:08:36.870Z,29.68
2023-07-18T11:09:36.885Z,29.41
2023-07-18T11:10:36.906Z,29.73
2023-07-18T11:11:36.931Z,29.89
2023-07-18T11:12:36.967Z,29.79
2023-07-18T11:13:36.996Z,29.90
2023-07-18T11:14:37.013Z,30.16
2023-07-18T11:15:37.044Z,30.35
2023-07-18T11:16:37.129Z,30.42
2023-07-18T11:17:37.139Z,30.61
2023-07-18T11:18:37.118Z,30.62
2023-07-18T11:19:37.152Z,30.54
2023-07-18T11:20:37.179Z,30.60
2023-07-18T11:21:37.206Z,30.39
2023-07-18T11:22:37.288Z,30.42
2023-07-18T11:23:37.286Z,30.29
2023-07-18T11:24:37.307Z,29.63
2023-07-18T11:25:37.326Z,29.26
2023-07-18T11:26:37.357Z,29.18
2023-07-18T11:27:37.365Z,29.19
2023-07-18T11:28:37.408Z,29.28
2023-07-18T11:29:37.420Z,29.43
2023-07-18T11:30:37.524Z,29.53
2023-07-18T11:31:41.404Z,29.39
2023-07-18T11:32:37.524Z,29.51
2023-07-18T11:33:37.532Z,29.48
2023-07-18T11:34:37.552Z,29.37
2023-07-18T11:35:37.587Z,29.34
2023-07-18T11:36:37.612Z,29.65
2023-07-18T11:37:42.184Z,29.45
2023-07-18T11:38:37.659Z,29.67
2023-07-18T11:39:37.730Z,29.71
2023-07-18T11:40:37.721Z,29.45
2023-07-18T11:41:37.747Z,29.46
2023-07-18T11:42:37.772Z,29.70
2023-07-18T11:43:37.806Z,29.82
2023-07-18T11:44:37.827Z,29.94
2023-07-18T11:45:37.851Z,30.23
2023-07-18T11:46:37.889Z,30.45
2023-07-18T11:47:37.989Z,30.24
2023-07-18T11:48:38.049Z,29.90
2023-07-18T11:49:37.962Z,29.76
2023-07-18T11:50:37.997Z,29.51
2023-07-18T11:51:38.018Z,29.36
2023-07-18T11:52:38.054Z,29.15
2023-07-18T11:53:38.079Z,29.11
2023-07-18T11:54:38.111Z,28.77
2023-07-18T11:55:38.154Z,28.52
2023-07-18T11:56:38.159Z,28.55
2023-07-18T11:57:38.190Z,28.77
2023-07-18T11:58:38.219Z,29.21
2023-07-18T11:59:38.233Z,29.28
2023-07-18T12:00:38.270Z,29.48
2023-07-18T12:01:39.214Z,29.70
2023-07-18T12:02:38.405Z,29.79
2023-07-18T12:03:38.548Z,29.48
2023-07-18T12:04:38.378Z,29.15
2023-07-18T12:05:38.408Z,29.46
2023-07-18T12:06:38.427Z,29.49
2023-07-18T12:07:38.457Z,29.41
2023-07-18T12:08:38.481Z,29.60
2023-07-18T12:09:38.504Z,29.85
2023-07-18T12:10:38.537Z,29.92
2023-07-18T12:11:38.575Z,29.80
2023-07-18T12:12:38.598Z,29.58
2023-07-18T12:13:38.621Z,29.67
2023-07-18T12:14:38.640Z,29.95
2023-07-18T12:15:38.672Z,30.00
2023-07-18T12:16:38.710Z,29.74
2023-07-18T12:17:38.765Z,29.09
2023-07-18T12:18:38.756Z,29.11
2023-07-18T12:19:38.775Z,28.66
2023-07-18T12:20:38.812Z,28.29
2023-07-18T12:21:38.830Z,28.15
2023-07-18T12:22:39.060Z,27.43
2023-07-18T12:23:38.889Z,27.50
2023-07-18T12:24:38.916Z,27.17
2023-07-18T12:25:38.938Z,27.22
2023-07-18T12:26:38.978Z,27.14
2023-07-18T12:27:39.183Z,26.99
2023-07-18T12:28:39.023Z,26.89
2023-07-18T12:29:39.045Z,26.89
2023-07-18T12:30:39.104Z,26.20
2023-07-18T12:31:39.153Z,26.25
2023-07-18T12:32:39.287Z,26.20
2023-07-18T12:33:39.195Z,26.09
2023-07-18T12:34:39.178Z,26.05
2023-07-18T12:35:39.197Z,25.92
2023-07-18T12:36:39.224Z,25.85
2023-07-18T12:37:39.258Z,25.65
2023-07-18T12:38:39.286Z,26.02
2023-07-18T12:39:39.335Z,26.51
2023-07-18T12:40:39.325Z,26.85
2023-07-18T12:41:39.352Z,27.34
2023-07-18T12:42:39.381Z,27.74
2023-07-18T12:43:39.425Z,27.75
2023-07-18T12:44:39.428Z,27.62
2023-07-18T12:45:39.460Z,27.77
2023-07-18T12:46:39.515Z,27.78
2023-07-18T12:47:39.551Z,27.54
2023-07-18T12:48:50.031Z,27.62
2023-07-18T12:50:39.593Z,28.15
2023-07-18T12:51:39.611Z,28.55
2023-07-18T12:52:39.636Z,28.81
2023-07-18T12:53:39.664Z,28.89